Khanewal Weather



Khanewal's Current Weather

Temprature 39o haze

haze

Rain: 0 %

Min Temprature39o
Max Temprature39o
Humidity21
Wind Speed4.12 m/h
Sun Rise05:23:16
Sun Set18:54:16
Current Time: 08-May-2021 15:31:28
Lat/Lon: 30.3, 71.9333




Khanewal's Geo Location



Khanewal's Weather Forecast

Time Overall Temp Min Temp Max Temp Humidity Wind Speed Rain
08-May-2021 (Sat)
17:00:00 broken clouds 39.000 38.760 39.000 21 4.49 m/h 0 %
20:00:00 broken clouds 37.500 34.510 37.500 19 3.16 m/h 0 %
23:00:00 broken clouds 33.310 30.470 33.310 25 3.37 m/h 0 %
09-May-2021 (Sun)
02:00:00 broken clouds 29.080 29.080 29.080 29 2.52 m/h 0 %
05:00:00 scattered clouds 28.470 28.470 28.470 29 3.01 m/h 0 %
08:00:00 scattered clouds 34.070 34.070 34.070 20 3 m/h 0 %
11:00:00 broken clouds 40.320 40.320 40.320 11 3.37 m/h 0 %
14:00:00 scattered clouds 42.780 42.780 42.780 8 4.58 m/h 0 %
17:00:00 scattered clouds 41.830 41.830 41.830 8 4.12 m/h 0 %
20:00:00 clear sky 36.290 36.290 36.290 12 0.76 m/h 0 %
23:00:00 few clouds 32.290 32.290 32.290 19 4.45 m/h 0 %
10-May-2021 (Mon)
02:00:00 few clouds 29.100 29.100 29.100 30 3.82 m/h 0 %
05:00:00 few clouds 28.760 28.760 28.760 27 2.87 m/h 0 %
08:00:00 few clouds 34.270 34.270 34.270 18 2.51 m/h 0 %
11:00:00 few clouds 40.650 40.650 40.650 12 3.44 m/h 0 %
14:00:00 clear sky 43.360 43.360 43.360 9 5.17 m/h 0 %
17:00:00 clear sky 42.470 42.470 42.470 8 4.51 m/h 0 %
20:00:00 clear sky 34.740 34.740 34.740 18 6.57 m/h 0 %
23:00:00 scattered clouds 32.060 32.060 32.060 23 4.21 m/h 0 %
11-May-2021 (Tue)
02:00:00 overcast clouds 30.890 30.890 30.890 25 4.2 m/h 0 %
05:00:00 broken clouds 29.590 29.590 29.590 28 3.42 m/h 0 %
08:00:00 scattered clouds 35.500 35.500 35.500 23 4.99 m/h 0 %
11:00:00 few clouds 41.760 41.760 41.760 13 3.82 m/h 0 %
14:00:00 few clouds 44.320 44.320 44.320 9 3.9 m/h 0 %
17:00:00 scattered clouds 38.370 38.370 38.370 15 8.74 m/h 0 %
20:00:00 light rain 33.900 33.900 33.900 21 0.34 m/h 31 %
23:00:00 overcast clouds 31.580 31.580 31.580 31 5.67 m/h 0 %
12-May-2021 (Wed)
02:00:00 overcast clouds 31.380 31.380 31.380 33 6.14 m/h 0 %
05:00:00 overcast clouds 29.310 29.310 29.310 39 2.33 m/h 0 %
08:00:00 scattered clouds 33.040 33.040 33.040 31 3.35 m/h 0 %
11:00:00 few clouds 37.720 37.720 37.720 22 2.05 m/h 0 %
14:00:00 overcast clouds 40.440 40.440 40.440 18 3.49 m/h 0 %
17:00:00 broken clouds 39.380 39.380 39.380 17 2.27 m/h 0 %
20:00:00 light rain 26.930 26.930 26.930 52 5.5 m/h 186 %
23:00:00 few clouds 27.640 27.640 27.640 45 5.27 m/h 0 %
13-May-2021 (Thu)
02:00:00 light rain 25.960 25.960 25.960 54 3.06 m/h 118 %
05:00:00 light rain 24.310 24.310 24.310 61 3.38 m/h 18 %
08:00:00 clear sky 28.300 28.300 28.300 46 5.26 m/h 0 %
11:00:00 clear sky 34.240 34.240 34.240 29 4.76 m/h 0 %
14:00:00 clear sky 36.710 36.710 36.710 24 3.91 m/h 0 %

Famous Cities (60)